createdAt,value
2019-06-01T00:01:02.968Z,3.25
2019-06-01T00:03:06.907Z,3.22
2019-06-01T00:05:10.870Z,3.17
2019-06-01T00:07:14.715Z,3.33
2019-06-01T00:09:18.684Z,2.87
2019-06-01T00:11:22.544Z,3.15
2019-06-01T00:13:26.512Z,3.22
2019-06-01T00:15:30.322Z,3.58
2019-06-01T00:17:34.139Z,3.45
2019-06-01T00:19:37.944Z,3.25
2019-06-01T00:21:41.812Z,2.67
2019-06-01T00:23:46.562Z,3.00
2019-06-01T00:25:50.465Z,2.80
2019-06-01T00:27:54.374Z,3.00
2019-06-01T00:29:58.338Z,2.67
2019-06-01T00:32:02.228Z,2.90
2019-06-01T00:34:06.160Z,3.22
2019-06-01T00:36:10.010Z,2.98
2019-06-01T00:38:13.868Z,2.83
2019-06-01T00:40:18.036Z,2.72
2019-06-01T00:42:21.886Z,2.98
2019-06-01T00:44:25.830Z,2.80
2019-06-01T00:46:29.740Z,3.20
2019-06-01T00:48:33.620Z,2.80
2019-06-01T00:50:37.590Z,3.50
2019-06-01T00:52:41.437Z,2.87
2019-06-01T00:54:45.377Z,2.80
2019-06-01T00:56:49.701Z,3.47
2019-06-01T00:58:53.975Z,2.72
2019-06-01T01:00:57.936Z,2.77
2019-06-01T01:03:01.773Z,2.90
2019-06-01T01:05:12.894Z,2.70
2019-06-01T01:07:16.760Z,3.45
2019-06-01T01:09:20.665Z,3.30
2019-06-01T01:11:24.625Z,2.90
2019-06-01T01:13:28.551Z,2.75
2019-06-01T01:15:32.509Z,3.25
2019-06-01T01:17:36.273Z,2.98
2019-06-01T01:19:40.237Z,3.30
2019-06-01T01:21:44.167Z,3.20
2019-06-01T01:23:48.242Z,3.27
2019-06-01T01:25:52.614Z,2.98
2019-06-01T01:27:57.069Z,3.20
2019-06-01T01:30:00.912Z,3.17
2019-06-01T01:32:04.973Z,3.15
2019-06-01T01:34:08.722Z,3.42
2019-06-01T01:36:12.638Z,3.42
2019-06-01T01:38:16.653Z,3.12
2019-06-01T01:40:20.447Z,3.20
2019-06-01T01:42:24.330Z,2.80
2019-06-01T01:44:28.384Z,3.00
2019-06-01T01:46:32.163Z,3.30
2019-06-01T01:48:36.413Z,3.12
2019-06-01T01:50:40.333Z,3.10
2019-06-01T01:52:44.419Z,3.00
2019-06-01T01:54:48.167Z,3.17
2019-06-01T01:56:52.199Z,3.00
2019-06-01T01:59:15.791Z,3.30
2019-06-01T02:01:22.700Z,3.00
2019-06-01T02:03:25.107Z,3.08
2019-06-01T02:05:29.001Z,3.00
2019-06-01T02:07:32.881Z,2.72
2019-06-01T02:09:38.493Z,3.40
2019-06-01T02:11:42.423Z,3.20
2019-06-01T02:13:46.256Z,3.03
2019-06-01T02:15:50.197Z,3.20
2019-06-01T02:17:54.167Z,3.50
2019-06-01T02:19:58.189Z,3.10
2019-06-01T02:22:05.228Z,3.30
2019-06-01T02:24:09.098Z,3.20
2019-06-01T02:26:13.022Z,2.90
2019-06-01T02:28:16.939Z,2.97
2019-06-01T02:30:21.413Z,3.10
2019-06-01T02:32:25.376Z,3.07
2019-06-01T02:34:29.175Z,3.00
2019-06-01T02:36:33.181Z,3.13
2019-06-01T02:38:58.640Z,3.03
2019-06-01T02:41:03.272Z,3.63
2019-06-01T02:43:07.716Z,2.97
2019-06-01T02:45:12.455Z,3.03
2019-06-01T02:47:16.364Z,2.90
2019-06-01T02:49:20.296Z,3.00
2019-06-01T02:51:24.269Z,3.17
2019-06-01T02:53:28.077Z,2.97
2019-06-01T02:55:31.987Z,3.07
2019-06-01T02:57:36.093Z,3.23
2019-06-01T02:59:40.070Z,3.03
2019-06-01T03:01:57.383Z,2.80
2019-06-01T03:03:57.441Z,3.57
2019-06-01T03:06:03.489Z,3.27
2019-06-01T03:08:08.177Z,2.90
2019-06-01T03:10:14.309Z,3.57
2019-06-01T03:12:20.033Z,3.10
2019-06-01T03:14:27.015Z,2.93
2019-06-01T03:16:32.492Z,3.23
2019-06-01T03:18:39.704Z,2.83
2019-06-01T03:20:46.689Z,3.00
2019-06-01T03:22:53.061Z,3.83
2019-06-01T03:24:59.954Z,3.30
2019-06-01T03:27:06.229Z,3.23
2019-06-01T03:29:19.193Z,3.23
2019-06-01T03:31:23.091Z,3.73
2019-06-01T03:33:27.078Z,3.23
2019-06-01T03:35:31.107Z,2.80
2019-06-01T03:37:35.003Z,3.03
2019-06-01T03:39:38.922Z,3.10
2019-06-01T03:41:43.028Z,3.10
2019-06-01T03:43:46.833Z,2.80
2019-06-01T03:45:50.733Z,3.20
2019-06-01T03:47:54.673Z,2.83
2019-06-01T03:49:58.574Z,3.13
2019-06-01T03:52:02.732Z,2.97
2019-06-01T03:54:08.599Z,3.30
2019-06-01T03:56:12.651Z,3.53
2019-06-01T03:58:16.446Z,3.10
2019-06-01T04:00:20.422Z,2.93
2019-06-01T04:02:32.777Z,3.20
2019-06-01T04:04:29.775Z,3.47
2019-06-01T04:06:33.708Z,3.30
2019-06-01T04:08:37.588Z,2.97
2019-06-01T04:10:41.518Z,2.90
2019-06-01T04:12:45.406Z,3.20
2019-06-01T04:14:49.306Z,3.20
2019-06-01T04:16:53.298Z,3.30
2019-06-01T04:18:57.139Z,2.97
2019-06-01T04:21:02.415Z,3.13
2019-06-01T04:23:06.425Z,3.20
2019-06-01T04:25:10.438Z,2.77
2019-06-01T04:27:14.389Z,3.23
2019-06-01T04:29:18.266Z,3.00
2019-06-01T04:31:22.185Z,3.63
2019-06-01T04:33:26.086Z,3.47
2019-06-01T04:35:30.008Z,3.50
2019-06-01T04:37:33.873Z,3.63
2019-06-01T04:39:37.789Z,3.47
2019-06-01T04:41:41.680Z,3.03
2019-06-01T04:43:45.595Z,3.43
2019-06-01T04:45:49.527Z,3.30
2019-06-01T04:47:53.470Z,3.23
2019-06-01T04:49:58.806Z,3.27
2019-06-01T04:52:02.672Z,3.30
2019-06-01T04:54:06.934Z,3.60
2019-06-01T04:56:11.178Z,3.53
2019-06-01T04:58:15.125Z,3.40
2019-06-01T05:00:27.328Z,3.70
2019-06-01T05:02:26.088Z,3.60
2019-06-01T05:04:29.965Z,3.60
2019-06-01T05:06:33.900Z,3.50
2019-06-01T05:08:37.784Z,3.40
2019-06-01T05:10:41.703Z,3.30
2019-06-01T05:12:45.671Z,3.53
2019-06-01T05:14:49.474Z,3.50
2019-06-01T05:16:53.462Z,3.63
2019-06-01T05:18:57.309Z,3.43
2019-06-01T05:21:01.044Z,3.60
2019-06-01T05:23:04.996Z,3.87
2019-06-01T05:25:09.270Z,4.00
2019-06-01T05:27:13.201Z,3.53
2019-06-01T05:29:18.099Z,4.23
2019-06-01T05:31:25.248Z,3.87
2019-06-01T05:33:36.831Z,3.83
2019-06-01T05:35:33.519Z,3.93
2019-06-01T05:37:37.449Z,4.57
2019-06-01T05:39:41.317Z,3.90
2019-06-01T05:41:45.173Z,3.70
2019-06-01T05:43:49.058Z,3.90
2019-06-01T05:45:52.982Z,4.10
2019-06-01T05:47:56.899Z,3.90
2019-06-01T05:50:00.784Z,4.40
2019-06-01T05:52:04.870Z,4.20
2019-06-01T05:54:08.790Z,3.77
2019-06-01T05:56:12.772Z,3.83
2019-06-01T05:58:17.272Z,4.20
2019-06-01T06:00:29.341Z,3.93
2019-06-01T06:02:33.242Z,4.07
2019-06-01T06:04:37.116Z,3.80
2019-06-01T06:06:41.082Z,4.23
2019-06-01T06:08:46.576Z,4.00
2019-06-01T06:10:50.471Z,4.00
2019-06-01T06:12:54.378Z,3.93
2019-06-01T06:14:58.287Z,3.83
2019-06-01T06:17:02.461Z,3.50
2019-06-01T06:19:06.384Z,3.73
2019-06-01T06:21:10.257Z,3.83
2019-06-01T06:23:14.317Z,3.83
2019-06-01T06:25:18.262Z,3.85
2019-06-01T06:27:22.787Z,3.60
2019-06-01T06:29:26.670Z,4.30
2019-06-01T06:31:30.551Z,4.20
2019-06-01T06:33:36.853Z,4.37
2019-06-01T06:35:39.965Z,3.80
2019-06-01T06:37:43.898Z,4.25
2019-06-01T06:39:47.796Z,4.17
2019-06-01T06:41:51.707Z,3.63
2019-06-01T06:43:55.671Z,3.37
2019-06-01T06:45:59.583Z,4.53
2019-06-01T06:48:03.435Z,3.83
2019-06-01T06:50:07.714Z,3.65
2019-06-01T06:52:11.646Z,3.62
2019-06-01T06:54:16.106Z,4.50
2019-06-01T06:56:20.055Z,3.42
2019-06-01T06:58:24.432Z,3.90
2019-06-01T07:00:28.481Z,3.70
2019-06-01T07:02:32.387Z,3.70
2019-06-01T07:04:36.312Z,3.58
2019-06-01T07:06:40.191Z,3.35
2019-06-01T07:08:44.197Z,3.40
2019-06-01T07:10:48.003Z,3.40
2019-06-01T07:12:51.992Z,3.58
2019-06-01T07:14:55.805Z,3.90
2019-06-01T07:17:01.132Z,3.65
2019-06-01T07:19:05.125Z,3.10
2019-06-01T07:21:10.039Z,3.37
2019-06-01T07:23:14.103Z,5.00
2019-06-01T07:25:17.994Z,4.08
2019-06-01T07:27:22.041Z,2.75
2019-06-01T07:29:26.292Z,2.83
2019-06-01T07:31:30.134Z,3.10
2019-06-01T07:33:34.036Z,3.05
2019-06-01T07:35:38.015Z,3.02
2019-06-01T07:37:41.810Z,2.75
2019-06-01T07:39:45.772Z,2.50
2019-06-01T07:41:49.721Z,2.50
2019-06-01T07:43:53.563Z,2.30
2019-06-01T07:45:58.526Z,2.22
2019-06-01T07:48:02.371Z,2.12
2019-06-01T07:50:06.552Z,2.40
2019-06-01T07:52:13.207Z,2.02
2019-06-01T07:54:16.301Z,2.37
2019-06-01T07:56:20.467Z,2.40
2019-06-01T07:58:24.697Z,2.40
2019-06-01T08:00:29.570Z,2.22
2019-06-01T08:02:33.389Z,2.50
2019-06-01T08:04:52.486Z,2.60
2019-06-01T08:06:47.111Z,2.30
2019-06-01T08:08:49.470Z,2.22
2019-06-01T08:10:53.336Z,2.08
2019-06-01T08:12:57.269Z,2.20
2019-06-01T08:15:01.153Z,1.80
2019-06-01T08:17:05.310Z,2.08
2019-06-01T08:19:09.135Z,2.15
2019-06-01T08:21:13.135Z,2.15
2019-06-01T08:23:16.891Z,2.35
2019-06-01T08:25:22.070Z,2.65
2019-06-01T08:27:26.524Z,2.60
2019-06-01T08:29:30.827Z,2.35
2019-06-01T08:31:34.650Z,2.30
2019-06-01T08:33:38.626Z,2.47
2019-06-01T08:35:42.487Z,1.90
2019-06-01T08:37:46.311Z,1.82
2019-06-01T08:39:50.239Z,2.30
2019-06-01T08:41:54.120Z,2.20
2019-06-01T08:43:58.077Z,1.90
2019-06-01T08:46:02.041Z,1.65
2019-06-01T08:48:05.911Z,1.52
2019-06-01T08:50:10.189Z,1.80
2019-06-01T08:52:14.162Z,1.57
2019-06-01T08:54:19.013Z,1.65
2019-06-01T08:56:24.101Z,1.55
2019-06-01T08:58:28.258Z,1.62
2019-06-01T09:00:32.706Z,1.55
2019-06-01T09:02:37.388Z,1.70
2019-06-01T09:04:41.173Z,1.52
2019-06-01T09:06:45.055Z,1.30
2019-06-01T09:08:49.008Z,1.30
2019-06-01T09:10:52.911Z,1.30
2019-06-01T09:12:56.786Z,1.20
2019-06-01T09:15:00.696Z,1.22
2019-06-01T09:17:04.788Z,1.22
2019-06-01T09:19:11.405Z,1.22
2019-06-01T09:21:14.340Z,1.12
2019-06-01T09:23:18.100Z,1.30
2019-06-01T09:25:21.866Z,1.35
2019-06-01T09:27:25.772Z,2.08
2019-06-01T09:29:30.082Z,1.20
2019-06-01T09:31:34.392Z,1.32
2019-06-01T09:33:38.295Z,11.93
2019-06-01T09:35:53.981Z,1.82
2019-06-01T09:37:47.746Z,1.50
2019-06-01T09:39:51.649Z,1.75
2019-06-01T09:41:55.541Z,1.32
2019-06-01T09:43:59.526Z,1.77
2019-06-01T09:46:03.349Z,1.45
2019-06-01T09:48:07.425Z,1.45
2019-06-01T09:50:12.645Z,1.25
2019-06-01T09:52:16.584Z,1.15
2019-06-01T09:54:20.400Z,1.15
2019-06-01T09:56:24.299Z,1.20
2019-06-01T09:58:28.477Z,1.60
2019-06-01T10:00:32.554Z,1.32
2019-06-01T10:02:36.421Z,1.37
2019-06-01T10:04:40.770Z,1.55
2019-06-01T10:06:45.486Z,1.22
2019-06-01T10:08:49.372Z,1.42
2019-06-01T10:10:53.308Z,1.12
2019-06-01T10:12:57.171Z,1.40
2019-06-01T10:15:01.205Z,1.62
2019-06-01T10:17:05.525Z,1.40
2019-06-01T10:19:09.319Z,1.22
2019-06-01T10:21:13.227Z,1.20
2019-06-01T10:23:17.102Z,1.12
2019-06-01T10:25:21.090Z,1.15
2019-06-01T10:27:24.940Z,1.15
2019-06-01T10:29:28.810Z,1.30
2019-06-01T10:31:32.760Z,1.15
2019-06-01T10:33:37.375Z,1.00
2019-06-01T10:35:41.337Z,1.40
2019-06-01T10:37:45.271Z,1.10
2019-06-01T10:39:49.147Z,1.50
2019-06-01T10:41:53.090Z,1.47
2019-06-01T10:43:56.945Z,1.10
2019-06-01T10:46:00.879Z,1.62
2019-06-01T10:48:04.842Z,1.45
2019-06-01T10:50:09.331Z,1.12
2019-06-01T10:52:13.236Z,1.17
2019-06-01T10:54:17.106Z,2.10
2019-06-01T10:56:21.037Z,1.30
2019-06-01T10:58:24.949Z,1.90
2019-06-01T11:00:38.737Z,1.30
2019-06-01T11:02:34.779Z,1.10
2019-06-01T11:04:39.102Z,1.30
2019-06-01T11:06:47.910Z,1.27
2019-06-01T11:08:48.524Z,1.20
2019-06-01T11:10:52.496Z,1.35
2019-06-01T11:12:56.362Z,14.28
2019-06-01T11:15:00.367Z,3.80
2019-06-01T11:17:04.384Z,1.40
2019-06-01T11:19:08.330Z,1.47
2019-06-01T11:21:12.232Z,1.32
2019-06-01T11:23:16.070Z,1.25
2019-06-01T11:25:19.791Z,1.32
2019-06-01T11:27:23.693Z,1.10
2019-06-01T11:29:27.592Z,1.30
2019-06-01T11:31:31.525Z,1.30
2019-06-01T11:33:36.009Z,1.20
2019-06-01T11:35:41.188Z,1.45
2019-06-01T11:37:45.319Z,1.30
2019-06-01T11:39:49.157Z,1.40
2019-06-01T11:41:53.055Z,9.80
2019-06-01T11:43:56.966Z,1.30
2019-06-01T11:46:00.860Z,1.22
2019-06-01T11:48:04.934Z,1.80
2019-06-01T11:50:09.654Z,1.25
2019-06-01T11:52:13.478Z,1.35
2019-06-01T11:54:17.512Z,1.20
2019-06-01T11:56:21.389Z,1.10
2019-06-01T11:58:25.323Z,1.20
2019-06-01T12:00:29.410Z,1.20
2019-06-01T12:02:33.350Z,1.27
2019-06-01T12:04:37.848Z,1.20
2019-06-01T12:06:42.081Z,1.45
2019-06-01T12:08:46.460Z,1.65
2019-06-01T12:10:50.361Z,1.20
2019-06-01T12:12:55.322Z,1.00
2019-06-01T12:14:59.182Z,1.07
2019-06-01T12:17:03.097Z,1.47
2019-06-01T12:19:07.021Z,1.77
2019-06-01T12:21:10.916Z,1.40
2019-06-01T12:23:15.039Z,1.17
2019-06-01T12:25:18.989Z,1.42
2019-06-01T12:27:22.839Z,1.10
2019-06-01T12:29:26.935Z,1.10
2019-06-01T12:31:30.855Z,1.20
2019-06-01T12:33:34.793Z,1.17
2019-06-01T12:35:39.824Z,1.05
2019-06-01T12:38:00.138Z,1.30
2019-06-01T12:39:52.086Z,1.30
2019-06-01T12:41:54.889Z,1.10
2019-06-01T12:44:17.250Z,1.20
2019-06-01T12:46:21.110Z,1.22
2019-06-01T12:48:25.008Z,1.12
2019-06-01T12:50:29.071Z,1.30
2019-06-01T12:52:32.898Z,0.98
2019-06-01T12:54:36.779Z,1.10
2019-06-01T12:56:40.859Z,1.25
2019-06-01T12:58:45.978Z,1.22
2019-06-01T13:00:50.014Z,1.27
2019-06-01T13:03:06.046Z,1.25
2019-06-01T13:04:59.302Z,0.90
2019-06-01T13:07:03.274Z,1.20
2019-06-01T13:09:08.587Z,1.22
2019-06-01T13:11:12.494Z,1.35
2019-06-01T13:13:16.433Z,1.40
2019-06-01T13:15:20.513Z,1.70
2019-06-01T13:17:24.388Z,1.30
2019-06-01T13:19:28.370Z,1.10
2019-06-01T13:21:32.252Z,1.90
2019-06-01T13:23:36.096Z,1.17
2019-06-01T13:25:41.406Z,1.40
2019-06-01T13:27:46.427Z,1.20
2019-06-01T13:29:50.473Z,1.42
2019-06-01T13:31:54.383Z,1.40
2019-06-01T13:33:58.281Z,1.57
2019-06-01T13:36:02.220Z,1.55
2019-06-01T13:38:12.286Z,1.60
2019-06-01T13:40:11.693Z,1.40
2019-06-01T13:42:15.544Z,1.52
2019-06-01T13:44:19.514Z,1.30
2019-06-01T13:46:23.339Z,1.45
2019-06-01T13:48:27.276Z,1.80
2019-06-01T13:50:31.161Z,1.50
2019-06-01T13:52:35.058Z,1.67
2019-06-01T13:54:40.232Z,1.50
2019-06-01T13:56:44.754Z,1.30
2019-06-01T13:58:48.617Z,1.50
2019-06-01T14:00:53.225Z,1.45
2019-06-01T14:02:58.150Z,1.52
2019-06-01T14:05:02.047Z,1.50
2019-06-01T14:07:06.057Z,1.47
2019-06-01T14:09:09.780Z,1.62
2019-06-01T14:11:13.700Z,1.52
2019-06-01T14:13:17.747Z,1.85
2019-06-01T14:15:21.548Z,1.22
2019-06-01T14:17:25.415Z,1.65
2019-06-01T14:19:29.300Z,1.77
2019-06-01T14:21:33.201Z,1.67
2019-06-01T14:23:37.210Z,1.60
2019-06-01T14:25:41.088Z,1.60
2019-06-01T14:27:46.060Z,1.72
2019-06-01T14:29:50.301Z,1.57
2019-06-01T14:31:57.387Z,1.67
2019-06-01T14:34:01.342Z,1.42
2019-06-01T14:36:05.447Z,1.60
2019-06-01T14:38:09.370Z,1.52
2019-06-01T14:40:13.697Z,1.65
2019-06-01T14:42:17.556Z,1.55
2019-06-01T14:44:21.457Z,1.40
2019-06-01T14:46:25.377Z,1.65
2019-06-01T14:48:29.273Z,1.60
2019-06-01T14:50:33.281Z,1.60
2019-06-01T14:52:37.226Z,1.40
2019-06-01T14:54:41.089Z,1.40
2019-06-01T14:56:44.956Z,1.50
2019-06-01T14:58:49.900Z,1.62
2019-06-01T15:00:54.571Z,1.42
2019-06-01T15:02:58.543Z,1.30
2019-06-01T15:05:02.428Z,1.37
2019-06-01T15:07:06.256Z,1.30
2019-06-01T15:09:18.331Z,1.67
2019-06-01T15:11:16.085Z,1.22
2019-06-01T15:13:20.053Z,1.30
2019-06-01T15:15:24.178Z,1.60
2019-06-01T15:17:28.064Z,1.50
2019-06-01T15:19:31.954Z,1.52
2019-06-01T15:21:37.188Z,1.50
2019-06-01T15:23:40.975Z,1.67
2019-06-01T15:25:44.951Z,1.37
2019-06-01T15:27:48.673Z,1.40
2019-06-01T15:29:52.734Z,1.57
2019-06-01T15:31:57.952Z,1.70
2019-06-01T15:34:01.958Z,2.25
2019-06-01T15:36:05.913Z,1.77
2019-06-01T15:38:09.882Z,1.42
2019-06-01T15:40:14.474Z,1.42
2019-06-01T15:42:18.348Z,1.70
2019-06-01T15:44:22.320Z,1.70
2019-06-01T15:46:26.207Z,1.40
2019-06-01T15:48:30.074Z,1.57
2019-06-01T15:50:34.020Z,2.27
2019-06-01T15:52:37.991Z,1.52
2019-06-01T15:54:41.832Z,1.40
2019-06-01T15:56:45.780Z,1.30
2019-06-01T15:58:53.564Z,1.37
2019-06-01T16:00:56.696Z,1.50
2019-06-01T16:03:01.185Z,1.30
2019-06-01T16:05:05.708Z,1.52
2019-06-01T16:07:09.517Z,1.40
2019-06-01T16:09:13.434Z,1.52
2019-06-01T16:11:17.359Z,1.65
2019-06-01T16:13:21.412Z,1.65
2019-06-01T16:15:25.392Z,1.40
2019-06-01T16:17:29.258Z,1.27
2019-06-01T16:19:33.195Z,1.40
2019-06-01T16:21:37.051Z,1.20
2019-06-01T16:23:49.863Z,1.20
2019-06-01T16:25:57.400Z,1.32
2019-06-01T16:27:52.268Z,1.50
2019-06-01T16:29:56.856Z,1.60
2019-06-01T16:32:00.821Z,1.42
2019-06-01T16:34:05.278Z,1.60
2019-06-01T16:36:09.082Z,1.55
2019-06-01T16:38:13.070Z,1.65
2019-06-01T16:40:17.827Z,1.30
2019-06-01T16:42:21.647Z,1.40
2019-06-01T16:44:26.453Z,1.32
2019-06-01T16:46:30.245Z,1.45
2019-06-01T16:48:34.164Z,2.05
2019-06-01T16:50:38.208Z,1.75
2019-06-01T16:52:42.024Z,3.20
2019-06-01T16:54:45.946Z,2.30
2019-06-01T16:56:50.124Z,2.90
2019-06-01T16:58:53.901Z,1.95
2019-06-01T17:00:58.552Z,1.87
2019-06-01T17:03:02.706Z,1.65
2019-06-01T17:05:07.505Z,2.00
2019-06-01T17:07:11.378Z,1.80
2019-06-01T17:09:15.255Z,2.30
2019-06-01T17:11:19.204Z,2.10
2019-06-01T17:13:23.123Z,3.12
2019-06-01T17:15:27.043Z,1.70
2019-06-01T17:17:30.936Z,1.70
2019-06-01T17:19:34.849Z,1.50
2019-06-01T17:21:38.736Z,1.40
2019-06-01T17:23:42.598Z,1.30
2019-06-01T17:25:46.613Z,1.50
2019-06-01T17:27:50.472Z,1.37
2019-06-01T17:29:54.295Z,1.82
2019-06-01T17:32:14.303Z,1.37
2019-06-01T17:34:04.655Z,1.62
2019-06-01T17:36:08.935Z,1.60
2019-06-01T17:38:12.963Z,1.27
2019-06-01T17:40:16.840Z,1.40
2019-06-01T17:42:20.608Z,1.62
2019-06-01T17:44:24.493Z,1.45
2019-06-01T17:46:28.546Z,1.37
2019-06-01T17:48:33.611Z,1.50
2019-06-01T17:50:37.513Z,1.47
2019-06-01T17:52:41.429Z,1.42
2019-06-01T17:54:45.276Z,1.90
2019-06-01T17:56:49.234Z,1.80
2019-06-01T17:58:53.337Z,1.52
2019-06-01T18:00:57.256Z,1.70
2019-06-01T18:03:01.608Z,1.30
2019-06-01T18:05:05.888Z,1.57
2019-06-01T18:07:10.046Z,1.77
2019-06-01T18:09:13.944Z,1.82
2019-06-01T18:11:17.911Z,2.60
2019-06-01T18:13:22.002Z,2.27
2019-06-01T18:15:26.219Z,2.40
2019-06-01T18:17:30.063Z,2.30
2019-06-01T18:19:34.018Z,2.65
2019-06-01T18:21:38.060Z,3.77
2019-06-01T18:23:41.967Z,3.52
2019-06-01T18:25:45.992Z,2.75
2019-06-01T18:27:49.948Z,1.90
2019-06-01T18:29:53.747Z,1.62
2019-06-01T18:31:57.761Z,1.65
2019-06-01T18:34:03.079Z,3.10
2019-06-01T18:36:08.175Z,9.20
2019-06-01T18:38:14.862Z,16.42
2019-06-01T18:40:22.234Z,15.80
2019-06-01T18:42:29.168Z,8.18
2019-06-01T18:44:33.158Z,4.50
2019-06-01T18:46:37.057Z,5.80
2019-06-01T18:48:41.022Z,4.20
2019-06-01T18:50:44.868Z,3.45
2019-06-01T18:52:48.860Z,3.72
2019-06-01T18:54:52.749Z,4.85
2019-06-01T18:57:09.797Z,3.17
2019-06-01T18:59:02.191Z,2.75
2019-06-01T19:01:06.427Z,3.58
2019-06-01T19:03:11.630Z,2.80
2019-06-01T19:05:16.094Z,2.50
2019-06-01T19:07:19.961Z,3.72
2019-06-01T19:09:23.871Z,3.22
2019-06-01T19:11:35.708Z,3.60
2019-06-01T19:13:33.286Z,2.50
2019-06-01T19:15:38.229Z,1.87
2019-06-01T19:17:42.378Z,2.65
2019-06-01T19:19:46.246Z,5.58
2019-06-01T19:21:50.141Z,2.92
2019-06-01T19:23:54.128Z,2.77
2019-06-01T19:25:57.935Z,2.08
2019-06-01T19:28:01.855Z,2.20
2019-06-01T19:30:06.974Z,2.00
2019-06-01T19:32:12.837Z,2.22
2019-06-01T19:34:18.010Z,2.40
2019-06-01T19:36:22.209Z,2.20
2019-06-01T19:38:28.176Z,2.33
2019-06-01T19:40:39.694Z,2.00
2019-06-01T19:42:43.523Z,2.17
2019-06-01T19:44:47.514Z,2.10
2019-06-01T19:46:51.326Z,2.70
2019-06-01T19:48:55.256Z,3.98
2019-06-01T19:50:59.131Z,2.52
2019-06-01T19:53:03.057Z,2.20
2019-06-01T19:55:08.785Z,2.65
2019-06-01T19:57:17.963Z,2.25
2019-06-01T19:59:18.357Z,3.35
2019-06-01T20:01:22.665Z,2.80
2019-06-01T20:03:26.676Z,2.52
2019-06-01T20:05:30.566Z,3.05
2019-06-01T20:07:34.553Z,3.33
2019-06-01T20:09:38.537Z,2.83
2019-06-01T20:11:42.558Z,3.52
2019-06-01T20:13:46.407Z,3.95
2019-06-01T20:15:50.460Z,3.30
2019-06-01T20:17:54.423Z,3.80
2019-06-01T20:19:58.309Z,3.45
2019-06-01T20:22:02.182Z,2.75
2019-06-01T20:24:06.211Z,2.50
2019-06-01T20:26:11.237Z,2.60
2019-06-01T20:28:15.624Z,2.80
2019-06-01T20:30:22.187Z,3.08
2019-06-01T20:32:26.290Z,2.37
2019-06-01T20:34:30.150Z,2.50
2019-06-01T20:36:34.052Z,3.62
2019-06-01T20:38:37.957Z,2.75
2019-06-01T20:40:41.848Z,2.47
2019-06-01T20:42:45.831Z,2.62
2019-06-01T20:44:49.644Z,2.30
2019-06-01T20:46:53.574Z,2.40
2019-06-01T20:48:57.454Z,2.40
2019-06-01T20:51:01.372Z,2.47
2019-06-01T20:53:05.438Z,2.45
2019-06-01T20:55:09.815Z,2.75
2019-06-01T20:57:13.769Z,2.55
2019-06-01T20:59:21.022Z,3.02
2019-06-01T21:01:23.956Z,3.05
2019-06-01T21:03:27.982Z,3.58
2019-06-01T21:05:31.756Z,3.35
2019-06-01T21:07:35.735Z,4.75
2019-06-01T21:09:39.655Z,3.45
2019-06-01T21:11:43.571Z,3.15
2019-06-01T21:13:47.385Z,3.05
2019-06-01T21:15:51.357Z,3.08
2019-06-01T21:17:55.260Z,2.67
2019-06-01T21:20:04.138Z,3.00
2019-06-01T21:22:04.910Z,2.72
2019-06-01T21:24:08.782Z,2.60
2019-06-01T21:26:12.652Z,2.52
2019-06-01T21:28:18.169Z,2.80
2019-06-01T21:30:23.021Z,2.62
2019-06-01T21:32:28.083Z,2.70
2019-06-01T21:34:31.979Z,3.10
2019-06-01T21:36:35.889Z,3.10
2019-06-01T21:38:39.818Z,3.05
2019-06-01T21:40:43.667Z,3.33
2019-06-01T21:43:02.708Z,3.10
2019-06-01T21:44:53.226Z,3.00
2019-06-01T21:46:57.101Z,3.17
2019-06-01T21:49:00.943Z,3.02
2019-06-01T21:51:04.999Z,5.05
2019-06-01T21:53:08.989Z,6.17
2019-06-01T21:55:12.955Z,3.27
2019-06-01T21:57:16.769Z,3.65
2019-06-01T21:59:20.715Z,3.08
2019-06-01T22:01:24.921Z,3.10
2019-06-01T22:03:29.059Z,3.47
2019-06-01T22:05:32.993Z,3.00
2019-06-01T22:07:36.871Z,3.67
2019-06-01T22:09:40.904Z,2.80
2019-06-01T22:11:44.723Z,2.92
2019-06-01T22:13:48.610Z,3.22
2019-06-01T22:15:52.528Z,3.25
2019-06-01T22:17:56.421Z,2.98
2019-06-01T22:20:00.334Z,3.02
2019-06-01T22:22:04.413Z,3.12
2019-06-01T22:24:08.330Z,2.50
2019-06-01T22:26:12.223Z,3.25
2019-06-01T22:28:18.633Z,2.62
2019-06-01T22:30:22.763Z,2.45
2019-06-01T22:32:30.007Z,3.00
2019-06-01T22:34:32.169Z,3.10
2019-06-01T22:36:36.135Z,2.72
2019-06-01T22:38:40.053Z,2.80
2019-06-01T22:40:43.867Z,3.00
2019-06-01T22:42:47.755Z,3.45
2019-06-01T22:44:51.678Z,3.05
2019-06-01T22:46:55.579Z,3.52
2019-06-01T22:48:59.489Z,3.10
2019-06-01T22:51:03.465Z,2.90
2019-06-01T22:53:07.334Z,3.37
2019-06-01T22:55:11.470Z,3.85
2019-06-01T22:57:15.294Z,3.35
2019-06-01T22:59:20.461Z,3.15
2019-06-01T23:01:24.723Z,3.60
2019-06-01T23:03:30.038Z,3.47
2019-06-01T23:05:34.203Z,3.35
2019-06-01T23:07:38.104Z,3.80
2019-06-01T23:09:42.381Z,3.55
2019-06-01T23:11:46.333Z,3.33
2019-06-01T23:13:53.655Z,3.62
2019-06-01T23:15:55.866Z,3.47
2019-06-01T23:17:59.749Z,3.50
2019-06-01T23:20:04.235Z,3.87
2019-06-01T23:22:08.089Z,3.33
2019-06-01T23:24:11.985Z,3.17
2019-06-01T23:26:16.007Z,3.75
2019-06-01T23:28:19.798Z,3.58
2019-06-01T23:30:24.262Z,4.05
2019-06-01T23:32:28.596Z,4.15
2019-06-01T23:34:32.815Z,3.60
2019-06-01T23:36:37.028Z,3.77
2019-06-01T23:38:40.957Z,3.62
2019-06-01T23:40:44.926Z,4.00
2019-06-01T23:42:48.788Z,3.87
2019-06-01T23:44:52.690Z,4.00
2019-06-01T23:46:56.691Z,4.50
2019-06-01T23:49:00.481Z,4.85
2019-06-01T23:51:04.600Z,4.75
2019-06-01T23:53:13.533Z,4.83
2019-06-01T23:55:14.402Z,4.92
2019-06-01T23:57:18.158Z,4.90
2019-06-01T23:59:22.068Z,4.40
